NCAR-RAP Real-Time Weather Data

Output produced by METARs form (23 July 2018  17:08 UTC)
found at http://weather.rap.ucar.edu/surface/
 
KGGW 231653Z AUTO 34009KT 10SM CLR 25/06 A3025 RMK AO2 SLP236 T02500061
KGGW 231553Z AUTO 27006KT 10SM CLR 23/06 A3027 RMK AO2 SLP240 T02330061
 
KOLF 231653Z AUTO 32008KT 10SM CLR 26/07 A3025 RMK AO2 SLP234 T02610072 TSNO
KOLF 231553Z AUTO VRB05KT 10SM CLR 23/10 A3026 RMK AO2 SLP240 T02330100 TSNO
 
 
KJDN 231648Z AUTO 00000KT 24/06 A3026 RMK AO1 SLP238 T02440056
KJDN 231548Z AUTO 08004KT 23/06 A3028 RMK AO1 SLP242 T02330061
 
KGDV 231656Z AUTO 34005KT 10SM CLR 24/07 A3027 RMK AO2 SLP241 T02390067
KGDV 231556Z AUTO 33008KT 10SM CLR 23/07 A3029 RMK AO2 SLP243 T02280072